Time;durP1;ratioP1;P1;durP2;ratioP2;P2;SDS_P1;SDS_P2;PMS_P1;PMS_P2;Temp;Humidity;BMP_temperature;BMP_pressure;BME280_temperature;BME280_humidity;BME280_pressure;Samples;Min_cycle;Max_cycle;Signal;HPM_P1;HPM_P2
2023/08/02 00:02:20;;;;;;;5.32;1.83;;;16.40;99.90;;;;;;5018446;28;20041;-78
2023/08/02 00:05:06;;;;;;;5.55;1.63;;;16.40;99.90;;;;;;5025563;28;20052;-78
2023/08/02 00:07:52;;;;;;;6.35;1.88;;;16.30;99.90;;;;;;5017561;28;20045;-78
2023/08/02 00:10:38;;;;;;;6.70;1.80;;;16.30;99.90;;;;;;5019470;28;20068;-78
2023/08/02 00:13:24;;;;;;;8.65;1.63;;;16.30;99.90;;;;;;5019130;28;20389;-78
2023/08/02 00:16:10;;;;;;;6.57;1.80;;;16.20;99.90;;;;;;5017682;28;20474;-78
2023/08/02 00:18:56;;;;;;;7.35;2.58;;;16.30;99.90;;;;;;5033490;28;20048;-78
2023/08/02 00:21:42;;;;;;;7.38;2.03;;;16.20;99.90;;;;;;5032081;28;20095;-78
2023/08/02 00:24:28;;;;;;;5.35;2.05;;;16.20;99.90;;;;;;5019775;28;20037;-77
2023/08/02 00:27:14;;;;;;;9.82;2.03;;;16.20;99.90;;;;;;5026762;28;20072;-77
2023/08/02 00:30:00;;;;;;;6.22;2.33;;;16.20;99.90;;;;;;5004419;28;20081;-78
2023/08/02 00:32:47;;;;;;;10.52;1.90;;;16.20;99.90;;;;;;4993599;28;20037;-78
2023/08/02 00:35:33;;;;;;;8.77;2.28;;;16.20;99.90;;;;;;5024703;28;20037;-78
2023/08/02 00:38:21;;;;;;;5.00;2.13;;;16.30;99.90;;;;;;5018797;28;20034;-77
2023/08/02 00:41:07;;;;;;;8.50;2.45;;;16.30;99.90;;;;;;5032885;28;20048;-78
2023/08/02 00:43:53;;;;;;;5.18;2.17;;;16.30;99.90;;;;;;5005245;28;20050;-78
2023/08/02 00:46:38;;;;;;;5.40;2.28;;;16.30;99.90;;;;;;5012138;28;20041;-78
2023/08/02 00:49:24;;;;;;;7.00;2.38;;;16.40;99.90;;;;;;5014031;28;20099;-78
2023/08/02 00:52:11;;;;;;;11.13;3.17;;;16.50;99.90;;;;;;5014281;28;20034;-78
2023/08/02 00:54:56;;;;;;;6.32;2.90;;;16.50;99.90;;;;;;5029768;28;20669;-78
2023/08/02 00:57:42;;;;;;;10.52;3.15;;;16.40;99.90;;;;;;5038747;28;20036;-78
2023/08/02 01:00:28;;;;;;;8.80;3.28;;;16.20;99.90;;;;;;5000245;28;20037;-78
2023/08/02 01:03:14;;;;;;;8.85;3.20;;;16.20;99.90;;;;;;5035141;28;20037;-78
2023/08/02 01:06:35;;;;;;;10.93;3.65;;;16.20;99.90;;;;;;5010987;28;20060;-78
2023/08/02 01:09:26;;;;;;;10.60;3.08;;;16.10;99.90;;;;;;5030234;28;20124;-78
2023/08/02 01:12:13;;;;;;;5.68;2.63;;;16.20;99.90;;;;;;5004921;28;20425;-78
2023/08/02 01:14:59;;;;;;;8.85;2.85;;;16.20;99.90;;;;;;5020449;28;20421;-78
2023/08/02 01:17:45;;;;;;;6.85;2.95;;;16.10;99.90;;;;;;5021973;28;20040;-78
2023/08/02 01:20:31;;;;;;;9.35;2.67;;;16.10;99.90;;;;;;5012734;28;20077;-78
2023/08/02 01:23:17;;;;;;;8.23;2.88;;;16.20;99.90;;;;;;5019267;28;20040;-78
2023/08/02 01:26:03;;;;;;;5.10;2.55;;;16.10;99.90;;;;;;5021321;28;20103;-78
2023/08/02 01:28:51;;;;;;;9.88;3.10;;;16.10;99.90;;;;;;5036674;28;20041;-78
2023/08/02 01:31:37;;;;;;;6.53;2.67;;;16.10;99.90;;;;;;5010484;28;20194;-78
2023/08/02 01:34:23;;;;;;;4.90;2.25;;;16.10;99.90;;;;;;5003761;28;20061;-77
2023/08/02 01:37:09;;;;;;;7.22;2.83;;;16.10;99.90;;;;;;4990313;28;20039;-78
2023/08/02 01:39:55;;;;;;;6.22;2.45;;;16.10;99.90;;;;;;5015369;28;20095;-78
2023/08/02 01:42:41;;;;;;;5.55;2.50;;;16.10;99.90;;;;;;5022611;28;20045;-78
2023/08/02 01:45:27;;;;;;;7.57;2.78;;;16.20;99.90;;;;;;5021652;28;20068;-78
2023/08/02 01:48:14;;;;;;;5.95;2.45;;;16.20;99.90;;;;;;4992136;28;20049;-78
2023/08/02 01:51:00;;;;;;;6.23;2.80;;;16.20;99.90;;;;;;5020300;28;20128;-78
2023/08/02 01:53:46;;;;;;;7.85;2.70;;;16.10;99.90;;;;;;5008281;28;20101;-78
2023/08/02 01:56:33;;;;;;;7.95;2.90;;;16.10;99.90;;;;;;5021281;28;20122;-77
2023/08/02 01:59:19;;;;;;;8.02;2.42;;;16.10;99.90;;;;;;5007119;28;20374;-78
2023/08/02 02:02:05;;;;;;;7.32;2.80;;;16.10;99.90;;;;;;5008167;28;20132;-78
2023/08/02 02:04:51;;;;;;;12.20;2.72;;;16.10;99.90;;;;;;5022270;28;20048;-78
2023/08/02 02:07:37;;;;;;;6.55;2.88;;;16.10;99.90;;;;;;4995211;28;20045;-77
2023/08/02 02:10:24;;;;;;;5.88;2.63;;;16.20;99.90;;;;;;4995030;28;20663;-78
2023/08/02 02:13:10;;;;;;;5.23;2.40;;;16.10;99.90;;;;;;5038784;28;20661;-78
2023/08/02 02:15:56;;;;;;;9.13;2.60;;;16.10;99.90;;;;;;5029977;28;20263;-78
2023/08/02 02:18:42;;;;;;;7.25;2.67;;;16.00;99.90;;;;;;5038550;28;20044;-78
2023/08/02 02:21:28;;;;;;;6.75;2.50;;;16.10;99.90;;;;;;5021864;28;20091;-78
2023/08/02 02:24:14;;;;;;;4.57;2.42;;;16.10;99.90;;;;;;5008464;28;20041;-78
2023/08/02 02:27:01;;;;;;;7.85;2.90;;;16.00;99.90;;;;;;5001919;28;20052;-78
2023/08/02 02:29:47;;;;;;;7.13;2.60;;;16.00;99.90;;;;;;5000219;28;20076;-78
2023/08/02 02:32:33;;;;;;;7.53;2.97;;;16.00;99.90;;;;;;4988960;28;20037;-78
2023/08/02 02:35:19;;;;;;;6.32;2.30;;;16.00;99.90;;;;;;4996043;28;20037;-78
2023/08/02 02:38:07;;;;;;;8.00;2.65;;;16.00;99.90;;;;;;5022758;28;20428;-78
2023/08/02 02:40:53;;;;;;;6.82;2.55;;;16.00;99.90;;;;;;5006052;28;20046;-77
2023/08/02 02:43:39;;;;;;;6.18;2.70;;;16.00;99.90;;;;;;5013758;28;20068;-78
2023/08/02 02:46:24;;;;;;;6.72;2.70;;;16.00;99.90;;;;;;4999933;28;20049;-78
2023/08/02 02:49:10;;;;;;;7.10;2.40;;;16.00;99.90;;;;;;5020577;28;20051;-77
2023/08/02 02:51:56;;;;;;;6.43;2.80;;;16.00;99.90;;;;;;5041373;28;20051;-78
2023/08/02 02:54:42;;;;;;;6.82;2.88;;;16.00;99.90;;;;;;5002305;28;20046;-77
2023/08/02 02:57:28;;;;;;;8.32;3.13;;;16.10;99.90;;;;;;5027508;28;20041;-78
2023/08/02 03:00:15;;;;;;;5.93;2.85;;;16.10;99.90;;;;;;5018211;28;20051;-78
2023/08/02 03:03:01;;;;;;;5.60;2.60;;;16.00;99.90;;;;;;5022427;28;20436;-78
2023/08/02 03:05:47;;;;;;;9.52;3.28;;;16.00;99.90;;;;;;5020415;28;20056;-78
2023/08/02 03:08:33;;;;;;;5.30;2.63;;;16.00;99.90;;;;;;5034799;28;20048;-78
2023/08/02 03:11:19;;;;;;;8.95;2.70;;;15.90;99.90;;;;;;5034119;28;20067;-78
2023/08/02 03:14:05;;;;;;;9.55;2.75;;;16.00;99.90;;;;;;5006832;28;20088;-78
2023/08/02 03:16:51;;;;;;;12.15;3.00;;;16.00;99.90;;;;;;5021154;28;20038;-77
2023/08/02 03:19:37;;;;;;;7.43;3.17;;;16.00;99.90;;;;;;5033560;28;20134;-78
2023/08/02 03:22:23;;;;;;;6.72;2.67;;;15.90;99.90;;;;;;5002397;28;20046;-78
2023/08/02 03:25:09;;;;;;;7.03;2.80;;;15.90;99.90;;;;;;5007799;28;20041;-78
2023/08/02 03:27:55;;;;;;;6.95;2.75;;;15.90;99.90;;;;;;5001981;28;20121;-78
2023/08/02 03:30:41;;;;;;;7.97;2.40;;;15.90;99.90;;;;;;5020799;28;20041;-78
2023/08/02 03:33:27;;;;;;;7.43;2.67;;;15.90;99.90;;;;;;5019750;28;20041;-78
2023/08/02 03:36:13;;;;;;;7.15;2.85;;;15.80;99.90;;;;;;5016895;28;20040;-78
2023/08/02 03:38:59;;;;;;;7.00;2.58;;;15.70;99.90;;;;;;5019835;28;20037;-77
2023/08/02 03:41:45;;;;;;;7.55;3.05;;;15.70;99.90;;;;;;5020077;28;20073;-77
2023/08/02 03:44:30;;;;;;;9.63;3.17;;;15.70;99.90;;;;;;5019264;28;20075;-78
2023/08/02 03:47:17;;;;;;;13.60;3.38;;;15.70;99.90;;;;;;5019891;28;20046;-77
2023/08/02 03:50:03;;;;;;;8.27;3.03;;;15.60;99.90;;;;;;5018299;28;20545;-78
2023/08/02 03:52:49;;;;;;;10.57;3.90;;;15.60;99.90;;;;;;5032438;28;20051;-78
2023/08/02 03:55:35;;;;;;;12.48;3.78;;;15.60;99.90;;;;;;5019348;28;20052;-78
2023/08/02 03:58:21;;;;;;;5.63;3.25;;;15.70;99.90;;;;;;5031431;28;20037;-78
2023/08/02 04:01:07;;;;;;;7.10;2.95;;;15.80;99.90;;;;;;5004866;28;20129;-78
2023/08/02 04:03:53;;;;;;;8.27;2.75;;;15.80;99.90;;;;;;5026575;28;20052;-78
2023/08/02 04:06:41;;;;;;;6.88;2.28;;;15.70;99.90;;;;;;5034248;28;20429;-78
2023/08/02 04:09:26;;;;;;;7.60;2.60;;;15.70;99.90;;;;;;5020995;28;20034;-78
2023/08/02 04:12:12;;;;;;;5.32;2.40;;;15.70;99.90;;;;;;5033714;28;20060;-78
2023/08/02 04:14:58;;;;;;;8.73;2.78;;;15.70;99.90;;;;;;5036919;28;20120;-78
2023/08/02 04:17:44;;;;;;;6.10;2.92;;;15.70;99.90;;;;;;5028141;28;20033;-77
2023/08/02 04:20:30;;;;;;;6.57;3.28;;;15.50;99.90;;;;;;5018944;28;20037;-78
2023/08/02 04:23:16;;;;;;;7.57;3.22;;;15.60;99.90;;;;;;5018960;28;20367;-78
2023/08/02 04:26:09;;;;;;;7.03;3.53;;;15.60;99.90;;;;;;5026136;28;20041;-78
2023/08/02 04:28:55;;;;;;;10.10;3.03;;;15.60;99.90;;;;;;4985930;28;20045;-78
2023/08/02 04:31:41;;;;;;;8.85;2.97;;;15.60;99.90;;;;;;5000034;28;20056;-78
2023/08/02 04:34:27;;;;;;;5.65;2.40;;;15.60;99.90;;;;;;5011043;28;20123;-78
2023/08/02 04:37:13;;;;;;;4.90;2.30;;;15.60;99.90;;;;;;5018887;28;20045;-78
2023/08/02 04:39:59;;;;;;;8.50;2.70;;;15.70;99.90;;;;;;4999460;28;20038;-78
2023/08/02 04:42:47;;;;;;;9.15;2.78;;;15.70;99.90;;;;;;4985347;28;20049;-78
2023/08/02 04:45:33;;;;;;;7.40;2.65;;;15.70;99.90;;;;;;4987464;28;20044;-78
2023/08/02 04:48:19;;;;;;;8.25;2.47;;;15.80;99.90;;;;;;4999779;28;20037;-78
2023/08/02 04:51:08;;;;;;;6.57;2.38;;;15.80;99.90;;;;;;4989507;28;20052;-77
2023/08/02 04:53:54;;;;;;;6.43;2.30;;;15.80;99.90;;;;;;5003159;28;20659;-77
2023/08/02 04:56:40;;;;;;;7.80;2.45;;;15.70;99.90;;;;;;4989571;28;20030;-78
2023/08/02 04:59:26;;;;;;;9.88;3.03;;;15.70;99.90;;;;;;5003756;28;20112;-77
2023/08/02 05:02:12;;;;;;;7.63;2.50;;;15.70;99.90;;;;;;5021996;28;20037;-77
2023/08/02 05:04:58;;;;;;;4.75;2.20;;;15.80;99.90;;;;;;5034698;28;20763;-78
2023/08/02 05:07:44;;;;;;;7.20;2.55;;;15.80;99.90;;;;;;5027133;28;20037;-77
2023/08/02 05:10:30;;;;;;;6.15;2.70;;;15.70;99.90;;;;;;5022389;28;20050;-78
2023/08/02 05:13:16;;;;;;;8.98;3.00;;;15.80;99.90;;;;;;5026352;28;20091;-78
2023/08/02 05:16:02;;;;;;;10.57;2.92;;;15.80;99.90;;;;;;5012228;28;20051;-77
2023/08/02 05:18:48;;;;;;;8.48;2.85;;;15.90;99.90;;;;;;5028416;28;20493;-77
2023/08/02 05:21:34;;;;;;;12.48;2.97;;;15.90;99.90;;;;;;5032427;28;20045;-78
2023/08/02 05:24:20;;;;;;;7.63;2.65;;;15.90;99.90;;;;;;5022286;28;20072;-78
2023/08/02 05:27:06;;;;;;;6.82;2.80;;;16.00;99.90;;;;;;5021853;28;20045;-78
2023/08/02 05:29:55;;;;;;;5.50;2.65;;;16.00;99.90;;;;;;5026613;28;20044;-78
2023/08/02 05:32:41;;;;;;;5.22;2.53;;;16.10;99.90;;;;;;5022710;28;20087;-78
2023/08/02 05:35:29;;;;;;;7.28;2.70;;;16.10;99.90;;;;;;5040814;28;20045;-78
2023/08/02 05:38:15;;;;;;;6.18;2.83;;;16.20;99.90;;;;;;5041744;28;20037;-78
2023/08/02 05:41:04;;;;;;;6.88;2.90;;;16.20;99.90;;;;;;5027211;28;20045;-78
2023/08/02 05:43:50;;;;;;;7.85;2.72;;;16.20;99.90;;;;;;5021746;28;20106;-77
2023/08/02 05:46:36;;;;;;;6.38;2.58;;;16.20;99.90;;;;;;5002606;28;20077;-78
2023/08/02 05:49:22;;;;;;;6.50;2.45;;;16.30;99.90;;;;;;5008913;28;20077;-78
2023/08/02 05:52:08;;;;;;;10.23;2.15;;;16.40;99.90;;;;;;5016279;28;20374;-78
2023/08/02 05:54:54;;;;;;;8.88;2.22;;;16.50;99.90;;;;;;5009369;28;20037;-78
2023/08/02 05:57:40;;;;;;;6.03;2.03;;;16.50;99.90;;;;;;5040653;28;20594;-78
2023/08/02 06:00:26;;;;;;;6.03;2.42;;;16.50;99.90;;;;;;5003290;28;20690;-78
2023/08/02 06:03:12;;;;;;;7.80;1.98;;;16.50;99.90;;;;;;5015586;28;20042;-78
2023/08/02 06:05:58;;;;;;;4.05;1.77;;;16.50;99.90;;;;;;5022745;28;20064;-78
2023/08/02 06:08:45;;;;;;;12.32;2.58;;;16.50;99.90;;;;;;5023436;28;20038;-78
2023/08/02 06:11:31;;;;;;;7.28;1.90;;;16.60;99.90;;;;;;5040365;28;20052;-77
2023/08/02 06:14:17;;;;;;;5.93;1.92;;;16.50;99.90;;;;;;5030121;28;20052;-78
2023/08/02 06:17:04;;;;;;;5.13;2.13;;;16.50;99.90;;;;;;5002152;28;20034;-78
2023/08/02 06:19:49;;;;;;;7.20;2.45;;;16.50;99.90;;;;;;5011138;28;20046;-78
2023/08/02 06:22:35;;;;;;;5.10;1.85;;;16.60;99.90;;;;;;5020560;28;20114;-78
2023/08/02 06:25:22;;;;;;;4.95;1.77;;;16.60;99.90;;;;;;5034932;28;20057;-78
2023/08/02 06:28:07;;;;;;;5.60;2.22;;;16.60;99.90;;;;;;5009823;28;20034;-78
2023/08/02 06:30:53;;;;;;;6.43;1.83;;;16.60;99.90;;;;;;5001868;28;20091;-78
2023/08/02 06:33:39;;;;;;;7.88;1.88;;;16.60;99.90;;;;;;4987460;28;20792;-78
2023/08/02 06:36:25;;;;;;;5.65;1.90;;;16.60;99.90;;;;;;5014320;28;20077;-78
2023/08/02 06:39:11;;;;;;;7.28;2.53;;;16.70;99.90;;;;;;5006687;28;20033;-78
2023/08/02 06:41:58;;;;;;;5.75;2.00;;;16.70;99.90;;;;;;5021019;28;20049;-78
2023/08/02 06:44:44;;;;;;;6.88;2.05;;;16.80;99.90;;;;;;5033562;28;20430;-78
2023/08/02 06:47:30;;;;;;;5.38;1.88;;;16.90;99.90;;;;;;4988653;28;20371;-78
2023/08/02 06:50:16;;;;;;;5.25;1.50;;;16.90;99.90;;;;;;5000698;28;20044;-78
2023/08/02 06:53:02;;;;;;;5.07;1.70;;;16.90;99.90;;;;;;5019331;28;20484;-78
2023/08/02 06:55:49;;;;;;;4.47;1.48;;;17.00;99.90;;;;;;5026512;28;20045;-78
2023/08/02 06:58:35;;;;;;;4.82;2.00;;;17.00;99.90;;;;;;5041090;28;20484;-78
2023/08/02 07:01:21;;;;;;;4.43;1.45;;;17.00;99.90;;;;;;5049056;28;20046;-78
2023/08/02 07:04:07;;;;;;;4.70;1.73;;;17.10;99.90;;;;;;5019217;28;20045;-78
2023/08/02 07:06:53;;;;;;;4.43;1.60;;;17.20;99.90;;;;;;5017935;28;20049;-78
2023/08/02 07:09:39;;;;;;;10.77;1.70;;;17.30;99.90;;;;;;5019094;28;20063;-78
2023/08/02 07:12:25;;;;;;;5.80;2.28;;;17.40;99.90;;;;;;5005741;28;20559;-78
2023/08/02 07:15:11;;;;;;;3.53;1.60;;;17.40;99.90;;;;;;5005920;28;20037;-78
2023/08/02 07:17:57;;;;;;;3.95;1.52;;;17.40;99.90;;;;;;5005936;28;20044;-78
2023/08/02 07:20:43;;;;;;;5.22;1.95;;;17.40;99.90;;;;;;4996855;28;20041;-77
2023/08/02 07:23:29;;;;;;;3.60;1.45;;;17.50;99.90;;;;;;5031864;28;20039;-78
2023/08/02 07:26:15;;;;;;;4.65;1.90;;;17.60;99.90;;;;;;5003160;28;20071;-78
2023/08/02 07:29:02;;;;;;;4.68;1.60;;;17.60;99.90;;;;;;4999094;28;20049;-78
2023/08/02 07:31:49;;;;;;;3.50;1.35;;;17.60;99.90;;;;;;5005419;28;20053;-78
2023/08/02 07:34:35;;;;;;;7.43;1.35;;;17.60;99.90;;;;;;4995587;28;20034;-78
2023/08/02 07:37:22;;;;;;;4.43;1.42;;;17.70;99.90;;;;;;5024928;28;20076;-79
2023/08/02 07:40:09;;;;;;;7.75;1.67;;;17.80;99.90;;;;;;5003759;28;20041;-78
2023/08/02 07:42:56;;;;;;;5.35;1.60;;;17.90;99.90;;;;;;4993904;28;20041;-78
2023/08/02 07:45:42;;;;;;;3.40;1.70;;;17.90;99.90;;;;;;4992936;28;20128;-78
2023/08/02 07:48:28;;;;;;;2.75;1.25;;;18.00;99.90;;;;;;5005152;28;20033;-78
2023/08/02 07:51:14;;;;;;;4.18;1.38;;;18.00;99.90;;;;;;4989902;28;20041;-78
2023/08/02 07:54:00;;;;;;;7.18;2.20;;;18.00;99.90;;;;;;5012105;28;20033;-77
2023/08/02 07:56:46;;;;;;;3.20;1.50;;;18.00;99.90;;;;;;4998390;28;20055;-78
2023/08/02 07:59:32;;;;;;;3.80;1.30;;;18.00;99.90;;;;;;5027387;28;20040;-78
2023/08/02 08:02:19;;;;;;;4.45;1.73;;;18.10;99.90;;;;;;5010697;28;20475;-79
2023/08/02 08:05:06;;;;;;;3.63;1.38;;;18.20;99.90;;;;;;5003796;28;20393;-80
2023/08/02 08:07:52;;;;;;;4.45;1.67;;;18.30;99.90;;;;;;5030894;28;20052;-79
2023/08/02 08:10:38;;;;;;;3.20;1.50;;;18.30;99.90;;;;;;4995496;28;20057;-78
2023/08/02 08:13:24;;;;;;;5.53;1.70;;;18.50;99.90;;;;;;5002545;28;20037;-78
2023/08/02 08:16:10;;;;;;;5.65;1.70;;;18.50;99.90;;;;;;4997890;28;20045;-78
2023/08/02 08:18:56;;;;;;;5.60;1.60;;;18.50;99.90;;;;;;5003048;28;20127;-79
2023/08/02 08:21:42;;;;;;;4.50;1.38;;;18.50;99.90;;;;;;5032022;28;20033;-79
2023/08/02 08:24:28;;;;;;;4.05;1.50;;;18.60;99.90;;;;;;4999295;28;20069;-79
2023/08/02 08:27:14;;;;;;;4.15;1.33;;;18.60;99.90;;;;;;5008962;28;20557;-79
2023/08/02 08:30:00;;;;;;;2.13;1.20;;;18.60;99.90;;;;;;5031485;28;20033;-79
2023/08/02 08:32:47;;;;;;;3.15;1.42;;;18.60;99.90;;;;;;5017927;28;20050;-79
2023/08/02 08:35:36;;;;;;;5.65;1.60;;;18.60;99.90;;;;;;5033067;28;20092;-79
2023/08/02 08:38:22;;;;;;;3.97;1.48;;;18.70;99.90;;;;;;5039429;28;20104;-79
2023/08/02 08:41:12;;;;;;;4.15;1.10;;;18.70;99.90;;;;;;5038680;28;20441;-79
2023/08/02 08:44:02;;;;;;;3.63;1.38;;;18.70;99.90;;;;;;5037735;28;20107;-78
2023/08/02 08:46:48;;;;;;;3.75;1.40;;;18.70;99.90;;;;;;5041903;28;20115;-78
2023/08/02 08:49:35;;;;;;;4.05;1.70;;;18.80;99.90;;;;;;5030391;28;20033;-78
2023/08/02 08:52:21;;;;;;;6.03;2.08;;;18.80;99.90;;;;;;5025251;28;20099;-79
2023/08/02 08:55:08;;;;;;;4.88;1.83;;;18.90;99.90;;;;;;5027129;28;20045;-79
2023/08/02 08:57:54;;;;;;;5.40;1.65;;;19.00;99.90;;;;;;5008981;28;20072;-79
2023/08/02 09:00:40;;;;;;;6.18;1.80;;;19.00;99.90;;;;;;5016920;28;20335;-78
2023/08/02 09:03:26;;;;;;;2.90;1.40;;;19.00;99.90;;;;;;5041049;28;20110;-78
2023/08/02 09:06:13;;;;;;;3.28;1.60;;;19.00;99.90;;;;;;5003939;28;20121;-79
2023/08/02 09:08:59;;;;;;;4.68;1.70;;;19.10;99.90;;;;;;5008511;28;20705;-78
2023/08/02 09:11:45;;;;;;;6.57;1.80;;;19.10;99.90;;;;;;5026570;28;20076;-78
2023/08/02 09:14:32;;;;;;;3.72;1.77;;;19.10;99.90;;;;;;5037717;28;20041;-79
2023/08/02 09:17:18;;;;;;;4.43;1.92;;;19.10;99.90;;;;;;5038556;28;20037;-79
2023/08/02 09:20:08;;;;;;;4.88;1.70;;;19.20;99.90;;;;;;5030528;28;20072;-79
2023/08/02 09:22:54;;;;;;;4.88;1.77;;;19.20;99.90;;;;;;5028894;28;20048;-78
2023/08/02 09:25:40;;;;;;;5.40;2.25;;;19.30;99.90;;;;;;5042684;28;20041;-79
2023/08/02 09:28:26;;;;;;;5.00;1.88;;;19.30;99.90;;;;;;5021813;28;20048;-80
2023/08/02 09:31:18;;;;;;;4.93;2.00;;;19.40;99.90;;;;;;5056068;28;20041;-79
2023/08/02 09:34:04;;;;;;;3.80;1.90;;;19.40;99.90;;;;;;5041071;28;20033;-78
2023/08/02 09:36:50;;;;;;;5.90;2.08;;;19.40;99.90;;;;;;5010720;28;20044;-78
2023/08/02 09:39:36;;;;;;;8.40;2.40;;;19.40;99.90;;;;;;5013075;28;20408;-78
2023/08/02 09:42:28;;;;;;;7.82;2.10;;;19.30;99.90;;;;;;5004901;28;20045;-79
2023/08/02 09:45:16;;;;;;;4.13;1.95;;;19.30;99.90;;;;;;5013882;28;20095;-80
2023/08/02 09:48:02;;;;;;;8.50;2.05;;;19.30;99.90;;;;;;5023991;28;20136;-79
2023/08/02 09:50:53;;;;;;;3.85;2.00;;;19.30;99.90;;;;;;5012395;28;20045;-79
2023/08/02 09:53:40;;;;;;;5.88;1.90;;;19.20;99.90;;;;;;5004200;28;20037;-79
2023/08/02 09:56:26;;;;;;;5.10;2.22;;;19.30;99.90;;;;;;5037765;28;20041;-78
2023/08/02 09:59:12;;;;;;;3.35;2.15;;;19.20;99.90;;;;;;5027668;28;20454;-79
2023/08/02 10:01:58;;;;;;;4.68;2.40;;;19.20;99.90;;;;;;5031429;28;20481;-80
2023/08/02 10:04:44;;;;;;;5.00;2.15;;;19.20;99.90;;;;;;5042355;28;20041;-79
2023/08/02 10:07:42;;;;;;;4.70;2.20;;;19.20;99.90;;;;;;5030012;28;20612;-79
2023/08/02 10:10:31;;;;;;;6.75;2.08;;;19.20;99.90;;;;;;5028630;28;20068;-79
2023/08/02 10:13:20;;;;;;;7.15;2.17;;;19.20;99.90;;;;;;5041762;28;20033;-79
2023/08/02 10:16:06;;;;;;;4.90;2.40;;;19.10;99.90;;;;;;5038511;28;20362;-79
2023/08/02 10:18:52;;;;;;;6.70;2.55;;;19.10;99.90;;;;;;5041303;28;20047;-79
2023/08/02 10:21:39;;;;;;;5.90;2.60;;;19.10;99.90;;;;;;5039905;28;20033;-79
2023/08/02 10:24:26;;;;;;;7.90;2.95;;;19.20;99.90;;;;;;5023139;28;20057;-79
2023/08/02 10:27:12;;;;;;;3.55;2.17;;;19.10;99.90;;;;;;5017316;28;20120;-79
2023/08/02 10:29:58;;;;;;;3.78;2.20;;;19.10;99.90;;;;;;5024945;28;20049;-78
2023/08/02 10:32:44;;;;;;;4.53;2.30;;;19.10;99.90;;;;;;5022101;28;20386;-78
2023/08/02 10:35:54;;;;;;;5.18;2.40;;;19.10;99.90;;;;;;5028358;28;20033;-78
2023/08/02 10:38:40;;;;;;;5.78;2.58;;;19.10;99.90;;;;;;5000721;28;20340;-79
2023/08/02 10:41:27;;;;;;;4.88;2.40;;;19.20;99.90;;;;;;5012142;28;20049;-79
2023/08/02 10:44:14;;;;;;;5.10;2.43;;;19.10;99.90;;;;;;5016665;28;20402;-79
2023/08/02 10:47:23;;;;;;;5.93;2.80;;;19.10;99.90;;;;;;5015770;28;20753;-79
2023/08/02 10:50:44;;;;;;;6.05;2.42;;;19.00;99.90;;;;;;5021828;28;20099;-78
2023/08/02 10:53:30;;;;;;;5.88;2.97;;;19.00;99.90;;;;;;5013045;28;20718;-79
2023/08/02 10:56:17;;;;;;;4.88;2.72;;;18.90;99.90;;;;;;5009857;28;20053;-79
2023/08/02 10:59:03;;;;;;;5.32;2.90;;;18.80;99.90;;;;;;5015444;28;20084;-79
2023/08/02 11:01:59;;;;;;;6.75;2.72;;;18.70;99.90;;;;;;5029848;28;20057;-79
2023/08/02 11:04:47;;;;;;;6.07;2.80;;;18.60;99.90;;;;;;5005088;28;20041;-79
2023/08/02 11:07:34;;;;;;;5.75;2.42;;;18.60;99.90;;;;;;5020364;28;20132;-79
2023/08/02 11:10:20;;;;;;;7.18;3.03;;;18.60;99.90;;;;;;5005071;28;20053;-79
2023/08/02 11:13:06;;;;;;;6.18;3.10;;;18.40;99.90;;;;;;5001193;28;20528;-79
2023/08/02 11:16:03;;;;;;;5.88;2.70;;;18.30;99.90;;;;;;5014149;28;20045;-79
2023/08/02 11:18:49;;;;;;;7.03;2.88;;;18.40;99.90;;;;;;5039072;28;20037;-79
2023/08/02 11:21:36;;;;;;;4.97;2.97;;;18.50;99.90;;;;;;5037882;28;20436;-79
2023/08/02 11:24:22;;;;;;;8.32;3.47;;;18.40;99.90;;;;;;5027202;28;20041;-79
2023/08/02 11:27:08;;;;;;;5.35;3.67;;;18.40;99.90;;;;;;5038100;28;20037;-79
2023/08/02 11:30:01;;;;;;;5.57;3.20;;;18.30;99.90;;;;;;5033146;28;20116;-79
2023/08/02 11:32:48;;;;;;;7.15;3.42;;;18.20;99.90;;;;;;5033179;28;20041;-79
2023/08/02 11:35:34;;;;;;;7.00;3.22;;;18.10;99.90;;;;;;5007168;28;20045;-78
2023/08/02 11:38:20;;;;;;;5.97;3.45;;;18.20;99.90;;;;;;5019494;28;20132;-78
2023/08/02 11:41:19;;;;;;;8.32;3.75;;;18.20;99.90;;;;;;5036688;28;20517;-78
2023/08/02 11:44:14;;;;;;;7.45;4.25;;;18.30;99.90;;;;;;5021096;28;20354;-74
2023/08/02 11:47:03;;;;;;;6.90;3.67;;;18.30;99.90;;;;;;5032407;28;20132;-74
2023/08/02 11:49:56;;;;;;;6.70;3.60;;;18.30;99.90;;;;;;5025200;28;20037;-74
2023/08/02 11:52:41;;;;;;;6.53;3.35;;;18.30;99.90;;;;;;5009471;28;20042;-74
2023/08/02 11:55:27;;;;;;;4.55;3.08;;;18.30;99.90;;;;;;5018026;28;20458;-74
2023/08/02 11:58:13;;;;;;;5.25;3.20;;;18.30;99.90;;;;;;5016715;28;20049;-74
2023/08/02 12:01:02;;;;;;;4.68;2.30;;;18.30;99.90;;;;;;5022472;28;20041;-74
2023/08/02 12:03:56;;;;;;;4.25;2.40;;;18.30;99.90;;;;;;5033455;28;20041;-74
2023/08/02 12:06:52;;;;;;;3.80;2.20;;;18.20;99.90;;;;;;5006065;28;20373;-75
2023/08/02 12:09:43;;;;;;;3.90;2.08;;;18.10;99.90;;;;;;5011988;28;20041;-74
2023/08/02 12:12:30;;;;;;;4.13;2.65;;;18.00;99.90;;;;;;5015659;28;20143;-74
2023/08/02 12:15:18;;;;;;;4.32;2.70;;;18.00;99.90;;;;;;5013022;28;20176;-74
2023/08/02 12:18:04;;;;;;;;;;;17.90;99.90;;;;;;5027906;28;20041;-74
2023/08/02 12:21:15;;;;;;;5.05;3.05;;;17.80;99.90;;;;;;5109899;27;20392;-74
2023/08/02 12:24:13;;;;;;;4.03;2.28;;;17.90;99.90;;;;;;5069989;28;20156;-75
2023/08/02 12:27:15;;;;;;;4.68;2.40;;;17.90;99.90;;;;;;5061043;28;20078;-75
2023/08/02 12:30:09;;;;;;;5.43;2.45;;;18.00;99.90;;;;;;5109080;28;20058;-75
2023/08/02 12:32:56;;;;;;;3.88;2.13;;;18.00;99.90;;;;;;5089765;28;20050;-75
2023/08/02 12:35:42;;;;;;;6.07;2.50;;;18.00;99.90;;;;;;5081169;28;20065;-75
2023/08/02 12:38:30;;;;;;;4.75;1.83;;;18.00;99.90;;;;;;5081004;28;20142;-74
2023/08/02 12:41:16;;;;;;;4.30;2.15;;;18.00;99.90;;;;;;5099962;28;20066;-75
2023/08/02 12:44:02;;;;;;;3.80;1.90;;;18.10;99.90;;;;;;5072878;28;20119;-75
2023/08/02 12:46:48;;;;;;;4.63;1.83;;;18.10;99.90;;;;;;5085806;28;20233;-75
2023/08/02 12:49:34;;;;;;;3.50;2.17;;;18.10;99.90;;;;;;5096521;28;20047;-74
2023/08/02 12:52:20;;;;;;;6.22;1.98;;;18.10;99.90;;;;;;5082993;28;20478;-75
2023/08/02 12:55:06;;;;;;;3.95;1.92;;;18.10;99.90;;;;;;5095391;28;20093;-75
2023/08/02 12:57:52;;;;;;;8.35;1.70;;;18.20;99.90;;;;;;5092549;28;20054;-75
2023/08/02 13:00:39;;;;;;;3.25;1.55;;;18.20;99.90;;;;;;5105631;28;20086;-75
2023/08/02 13:03:25;;;;;;;2.53;1.50;;;18.20;99.90;;;;;;5120203;27;20372;-74
2023/08/02 13:06:11;;;;;;;3.40;1.60;;;18.20;99.90;;;;;;5094145;28;20040;-74
2023/08/02 13:08:57;;;;;;;4.53;1.60;;;18.20;99.90;;;;;;5098321;28;20039;-75
2023/08/02 13:11:43;;;;;;;3.67;1.30;;;18.20;99.90;;;;;;5095166;28;20067;-75
2023/08/02 13:14:29;;;;;;;2.72;1.60;;;18.20;99.90;;;;;;5090209;28;20047;-75
2023/08/02 13:17:19;;;;;;;2.72;1.55;;;18.30;99.90;;;;;;5095832;28;20043;-75
2023/08/02 13:20:06;;;;;;;4.47;1.95;;;18.30;99.90;;;;;;5090080;28;20593;-74
2023/08/02 13:22:52;;;;;;;1.98;1.35;;;18.30;99.90;;;;;;5108093;28;20341;-75
2023/08/02 13:25:38;;;;;;;2.95;1.35;;;18.30;99.90;;;;;;5079246;28;20043;-75
2023/08/02 13:28:24;;;;;;;3.30;1.48;;;18.30;99.90;;;;;;5096691;28;20040;-75
2023/08/02 13:31:10;;;;;;;2.40;1.48;;;18.30;99.90;;;;;;5092607;28;20539;-75
2023/08/02 13:33:56;;;;;;;2.20;1.45;;;18.30;99.90;;;;;;5076613;28;20045;-75
2023/08/02 13:36:42;;;;;;;3.42;1.52;;;18.30;99.90;;;;;;5088936;28;20490;-75
2023/08/02 13:39:28;;;;;;;4.55;1.88;;;18.40;99.90;;;;;;5093613;28;20047;-75
2023/08/02 13:42:14;;;;;;;3.22;1.60;;;18.30;99.90;;;;;;5097689;28;20083;-74
2023/08/02 13:45:00;;;;;;;2.83;1.27;;;18.40;99.90;;;;;;5114751;28;20479;-75
2023/08/02 13:47:46;;;;;;;1.90;1.40;;;18.40;99.90;;;;;;5064996;28;20571;-75
2023/08/02 13:50:35;;;;;;;4.00;1.80;;;18.40;99.90;;;;;;5079645;28;20130;-75
2023/08/02 13:53:21;;;;;;;1.77;1.23;;;18.40;99.90;;;;;;5046036;28;20557;-75
2023/08/02 13:56:07;;;;;;;3.05;1.50;;;18.40;99.90;;;;;;5091276;28;20078;-75
2023/08/02 13:58:53;;;;;;;2.65;1.48;;;18.50;99.90;;;;;;5084340;28;20043;-75
2023/08/02 14:01:39;;;;;;;3.45;1.73;;;18.50;99.90;;;;;;5090231;28;20039;-75
2023/08/02 14:04:25;;;;;;;3.35;1.48;;;18.40;99.90;;;;;;5073330;28;20354;-75
2023/08/02 14:07:11;;;;;;;3.92;1.50;;;18.40;99.90;;;;;;5060238;28;20036;-75
2023/08/02 14:09:59;;;;;;;2.47;1.25;;;18.50;99.90;;;;;;5087070;28;20043;-75
2023/08/02 14:12:45;;;;;;;3.45;1.27;;;18.50;99.90;;;;;;5098940;28;20043;-75
2023/08/02 14:15:31;;;;;;;1.88;1.17;;;18.50;99.90;;;;;;5112259;28;20039;-75
2023/08/02 14:18:17;;;;;;;2.40;0.90;;;18.50;99.90;;;;;;5085449;28;20169;-75
2023/08/02 14:21:03;;;;;;;3.80;0.80;;;18.50;99.90;;;;;;5057745;28;20151;-75
2023/08/02 14:23:49;;;;;;;1.83;1.20;;;18.50;99.90;;;;;;5064564;28;20055;-75
2023/08/02 14:26:36;;;;;;;2.17;1.27;;;18.50;99.90;;;;;;5067099;28;20028;-75
2023/08/02 14:29:22;;;;;;;1.27;0.63;;;18.60;99.90;;;;;;5088370;28;20429;-75